This is the latest recevied weather packets stored in our database for station/object KF4UQS-14. If no packets are shown the sender has not sent any weather packets the latest 1 day(s).
| Time | Temp. | Humidity | Pressure | Rain* | Wind** | Luminosity | Snow |
|---|---|---|---|---|---|---|---|
| 1778010339 | 27.22° C | 45% | 1015.2 hPa | 0 mm | 5.36 m/s, 189° | 596 W/m² | - |
| 1778010034 | 27.22° C | 45% | 1015.3 hPa | 0 mm | 4.02 m/s, 185° | 607 W/m² | - |
| 1778009732 | 27.22° C | 45% | 1015.4 hPa | 0 mm | 2.68 m/s, 187° | 621 W/m² | - |
| 1778009429 | 27.78° C | 46% | 1015.4 hPa | 0 mm | 3.58 m/s, 190° | 636 W/m² | - |
| 1778009127 | 27.22° C | 43% | 1015.6 hPa | 0 mm | 3.13 m/s, 193° | 631 W/m² | - |
| 1778008825 | 27.22° C | 45% | 1015.5 hPa | 0 mm | 2.68 m/s, 173° | 639 W/m² | - |
| 1778008523 | 27.78° C | 44% | 1015.8 hPa | 0 mm | 4.02 m/s, 185° | 648 W/m² | - |
| 1778008220 | 27.78° C | 41% | 1015.6 hPa | 0 mm | 1.79 m/s, 322° | 664 W/m² | - |
| 1778007915 | 27.78° C | 42% | 1015.6 hPa | 0 mm | 3.58 m/s, 216° | 678 W/m² | - |
| 1778007611 | 27.78° C | 41% | 1015.6 hPa | 0 mm | 4.02 m/s, 203° | 686 W/m² | - |
| 1778007308 | 27.78° C | 40% | 1015.8 hPa | 0 mm | 4.92 m/s, 178° | 696 W/m² | - |
| 1778007004 | 27.22° C | 42% | 1015.7 hPa | 0 mm | 4.47 m/s, 191° | 702 W/m² | - |
| 1778006701 | 27.22° C | 41% | 1015.7 hPa | 0 mm | 4.92 m/s, 192° | 714 W/m² | - |
| 1778006397 | 27.22° C | 39% | 1015.8 hPa | 0 mm | 3.13 m/s, 211° | 715 W/m² | - |
| 1778006095 | 27.22° C | 43% | 1015.9 hPa | 0 mm | 2.24 m/s, 192° | 716 W/m² | - |
| 1778005791 | 27.22° C | 40% | 1015.8 hPa | 0 mm | 4.47 m/s, 194° | 734 W/m² | - |
| 1778005488 | 27.22° C | 38% | 1016.1 hPa | 0 mm | 5.81 m/s, 156° | 737 W/m² | - |
| 1778005184 | 27.22° C | 38% | 1016.1 hPa | 0 mm | 5.81 m/s, 195° | 745 W/m² | - |
| 1778004882 | 27.78° C | 40% | 1015.9 hPa | 0 mm | 4.47 m/s, 205° | 751 W/m² | - |
| 1778004579 | 27.22° C | 39% | 1016.2 hPa | 0 mm | 4.02 m/s, 203° | 757 W/m² | - |
| 1778004275 | 27.22° C | 40% | 1016.1 hPa | 0 mm | 4.02 m/s, 220° | 761 W/m² | - |
| 1778003972 | 27.22° C | 43% | 1016.1 hPa | 0 mm | 3.58 m/s, 216° | 765 W/m² | - |
| 1778003668 | 27.78° C | 41% | 1016.1 hPa | 0 mm | 3.58 m/s, 191° | 767 W/m² | - |
| 1778003364 | 27.22° C | 43% | 1016 hPa | 0 mm | 3.58 m/s, 192° | 772 W/m² | - |
| 1778003062 | 27.22° C | 43% | 1016 hPa | 0 mm | 2.68 m/s, 181° | 774 W/m² | - |
* Rain latest hour (hover to see other rain measurements)
** Current wind speed in m/s (hover to see current wind gust speed)